createdAt,value
2023-06-28T00:01:38.248Z,13.90
2023-06-28T00:04:09.763Z,13.88
2023-06-28T00:06:57.061Z,13.84
2023-06-28T00:09:43.238Z,13.79
2023-06-28T00:12:11.294Z,13.75
2023-06-28T00:14:38.508Z,13.72
2023-06-28T00:17:06.019Z,13.70
2023-06-28T00:19:33.699Z,13.68
2023-06-28T00:22:01.185Z,13.66
2023-06-28T00:24:28.893Z,13.62
2023-06-28T00:26:56.096Z,13.59
2023-06-28T00:29:23.213Z,13.55
2023-06-28T00:31:50.850Z,13.52
2023-06-28T00:34:18.069Z,13.49
2023-06-28T00:36:48.411Z,13.47
2023-06-28T00:39:15.948Z,13.44
2023-06-28T00:41:43.084Z,13.42
2023-06-28T00:44:10.076Z,13.40
2023-06-28T00:46:41.466Z,13.34
2023-06-28T00:49:09.081Z,13.28
2023-06-28T00:51:37.683Z,13.24
2023-06-28T00:54:05.390Z,13.22
2023-06-28T00:56:33.432Z,13.19
2023-06-28T00:59:01.478Z,13.18
2023-06-28T01:01:50.679Z,13.15
2023-06-28T01:04:20.470Z,13.11
2023-06-28T01:07:02.569Z,13.09
2023-06-28T01:09:33.825Z,13.05
2023-06-28T01:12:03.085Z,13.04
2023-06-28T01:14:30.955Z,12.99
2023-06-28T01:16:58.966Z,12.95
2023-06-28T01:19:33.277Z,12.92
2023-06-28T01:22:13.845Z,12.90
2023-06-28T01:24:41.397Z,12.85
2023-06-28T01:27:14.427Z,12.80
2023-06-28T01:29:43.484Z,12.75
2023-06-28T01:32:13.228Z,12.71
2023-06-28T01:35:00.958Z,12.69
2023-06-28T01:37:28.919Z,12.68
2023-06-28T01:39:59.763Z,12.64
2023-06-28T01:42:27.311Z,12.62
2023-06-28T01:44:56.694Z,12.58
2023-06-28T01:47:24.525Z,12.58
2023-06-28T01:49:52.094Z,12.57
2023-06-28T01:52:19.353Z,12.55
2023-06-28T01:54:46.949Z,12.53
2023-06-28T01:57:15.484Z,12.52
2023-06-28T01:59:42.396Z,12.49
2023-06-28T02:02:11.787Z,12.47
2023-06-28T02:04:41.248Z,12.47
2023-06-28T02:07:08.922Z,12.45
2023-06-28T02:09:36.207Z,12.44
2023-06-28T02:12:07.286Z,12.43
2023-06-28T02:14:40.825Z,12.40
2023-06-28T02:17:14.975Z,12.38
2023-06-28T02:19:45.659Z,12.35
2023-06-28T02:22:15.985Z,12.35
2023-06-28T02:24:52.305Z,12.34
2023-06-28T02:27:19.663Z,12.32
2023-06-28T02:29:46.887Z,12.30
2023-06-28T02:32:15.244Z,12.29
2023-06-28T02:34:43.792Z,12.29
2023-06-28T02:37:10.985Z,12.29
2023-06-28T02:39:45.957Z,12.28
2023-06-28T02:42:15.384Z,12.28
2023-06-28T02:44:45.376Z,12.27
2023-06-28T02:47:12.630Z,12.27
2023-06-28T02:49:39.739Z,12.29
2023-06-28T02:52:08.011Z,12.30
2023-06-28T02:54:38.032Z,12.31
2023-06-28T02:57:11.409Z,12.31
2023-06-28T02:59:58.938Z,12.31
2023-06-28T03:02:26.168Z,12.29
2023-06-28T03:04:56.613Z,12.28
2023-06-28T03:07:26.526Z,12.27
2023-06-28T03:09:53.759Z,12.27
2023-06-28T03:12:31.715Z,12.29
2023-06-28T03:15:12.780Z,12.32
2023-06-28T03:18:00.194Z,12.34
2023-06-28T03:20:29.056Z,12.35
2023-06-28T03:23:06.937Z,12.37
2023-06-28T03:25:34.270Z,12.39
2023-06-28T03:28:02.035Z,12.43
2023-06-28T03:30:32.501Z,12.46
2023-06-28T03:33:00.727Z,12.49
2023-06-28T03:35:28.640Z,12.51
2023-06-28T03:37:59.682Z,12.54
2023-06-28T03:40:26.983Z,12.57
2023-06-28T03:42:57.181Z,12.61
2023-06-28T03:45:35.847Z,12.66
2023-06-28T03:48:08.688Z,12.70
2023-06-28T03:50:46.596Z,12.76
2023-06-28T03:53:13.767Z,12.80
2023-06-28T03:55:41.090Z,12.85
2023-06-28T03:58:10.468Z,12.91
2023-06-28T04:00:37.706Z,12.99
2023-06-28T04:03:17.183Z,13.05
2023-06-28T04:05:47.926Z,13.11
2023-06-28T04:08:28.081Z,13.18
2023-06-28T04:10:55.626Z,13.28
2023-06-28T04:13:23.285Z,13.38
2023-06-28T04:15:50.422Z,13.45
2023-06-28T04:18:17.371Z,13.56
2023-06-28T04:20:46.984Z,13.65
2023-06-28T04:23:17.825Z,13.73
2023-06-28T04:25:45.571Z,13.80
2023-06-28T04:28:13.064Z,13.85
2023-06-28T04:30:40.263Z,13.90
2023-06-28T04:33:08.374Z,13.95
2023-06-28T04:35:38.372Z,13.98
2023-06-28T04:38:06.053Z,14.04
2023-06-28T04:40:34.477Z,14.11
2023-06-28T04:43:01.473Z,14.18
2023-06-28T04:45:37.682Z,14.27
2023-06-28T04:48:09.139Z,14.38
2023-06-28T04:50:40.829Z,14.52
2023-06-28T04:53:08.876Z,14.67
2023-06-28T04:55:36.657Z,14.85
2023-06-28T04:58:05.137Z,14.94
2023-06-28T05:00:32.415Z,15.04
2023-06-28T05:03:01.447Z,15.14
2023-06-28T05:05:32.200Z,15.24
2023-06-28T05:08:00.682Z,15.38
2023-06-28T05:10:28.603Z,15.50
2023-06-28T05:12:55.934Z,15.68
2023-06-28T05:15:23.298Z,15.96
2023-06-28T05:17:50.393Z,16.30
2023-06-28T05:20:18.186Z,16.56
2023-06-28T05:22:51.212Z,16.74
2023-06-28T05:25:19.170Z,16.88
2023-06-28T05:27:46.295Z,16.89
2023-06-28T05:30:13.841Z,17.00
2023-06-28T05:32:41.677Z,17.14
2023-06-28T05:35:09.612Z,17.33
2023-06-28T05:37:42.172Z,17.54
2023-06-28T05:40:12.759Z,17.66
2023-06-28T05:42:39.808Z,17.80
2023-06-28T05:45:09.384Z,17.91
2023-06-28T05:47:36.783Z,18.02
2023-06-28T05:50:04.171Z,18.14
2023-06-28T05:52:31.286Z,18.28
2023-06-28T05:54:58.720Z,18.38
2023-06-28T05:57:26.010Z,18.52
2023-06-28T05:59:53.560Z,18.75
2023-06-28T06:02:21.049Z,19.27
2023-06-28T06:04:48.523Z,20.26
2023-06-28T06:07:15.791Z,21.80
2023-06-28T06:09:42.761Z,23.48
2023-06-28T06:12:12.735Z,25.07
2023-06-28T06:14:39.981Z,26.53
2023-06-28T06:17:07.933Z,27.83
2023-06-28T06:19:34.952Z,29.07
2023-06-28T06:22:01.891Z,30.05
2023-06-28T06:24:28.974Z,30.71
2023-06-28T06:26:56.183Z,31.34
2023-06-28T06:29:23.185Z,31.82
2023-06-28T06:31:50.517Z,31.69
2023-06-28T06:34:17.717Z,31.19
2023-06-28T06:36:44.915Z,30.34
2023-06-28T06:39:12.559Z,29.46
2023-06-28T06:41:39.966Z,29.23
2023-06-28T06:44:11.086Z,30.13
2023-06-28T06:46:38.611Z,30.74
2023-06-28T06:49:05.642Z,30.78
2023-06-28T06:51:33.282Z,31.07
2023-06-28T06:54:00.329Z,31.92
2023-06-28T06:56:28.423Z,32.87
2023-06-28T06:58:55.548Z,33.55
2023-06-28T07:01:23.224Z,34.31
2023-06-28T07:03:51.574Z,34.56
2023-06-28T07:06:18.846Z,34.93
2023-06-28T07:08:46.663Z,35.44
2023-06-28T07:11:14.070Z,35.84
2023-06-28T07:13:41.195Z,36.13
2023-06-28T07:16:09.198Z,36.39
2023-06-28T07:18:36.273Z,36.03
2023-06-28T07:21:03.915Z,35.96
2023-06-28T07:23:30.862Z,36.28
2023-06-28T07:25:58.003Z,36.80
2023-06-28T07:28:25.184Z,37.18
2023-06-28T07:30:56.714Z,37.27
2023-06-28T07:33:24.530Z,37.26
2023-06-28T07:35:52.172Z,37.35
2023-06-28T07:38:21.535Z,37.50
2023-06-28T07:40:49.149Z,37.64
2023-06-28T07:43:17.331Z,37.80
2023-06-28T07:45:45.335Z,37.79
2023-06-28T07:48:13.248Z,37.95
2023-06-28T07:50:40.701Z,38.07
2023-06-28T07:53:07.687Z,38.16
2023-06-28T07:55:34.776Z,37.99
2023-06-28T07:58:02.958Z,37.36
2023-06-28T08:00:32.478Z,36.53
2023-06-28T08:03:00.308Z,36.14
2023-06-28T08:05:28.150Z,36.08
2023-06-28T08:07:56.578Z,36.09
2023-06-28T08:10:26.856Z,36.13
2023-06-28T08:12:56.569Z,36.06
2023-06-28T08:15:23.489Z,36.08
2023-06-28T08:17:50.877Z,35.42
2023-06-28T08:20:18.182Z,33.91
2023-06-28T08:22:45.211Z,32.62
2023-06-28T08:25:12.874Z,31.92
2023-06-28T08:27:40.030Z,31.10
2023-06-28T08:30:08.942Z,30.17
2023-06-28T08:32:37.271Z,29.28
2023-06-28T08:35:05.534Z,28.35
2023-06-28T08:37:35.500Z,27.37
2023-06-28T08:40:03.136Z,26.59
2023-06-28T08:42:31.680Z,25.82
2023-06-28T08:45:00.351Z,25.10
2023-06-28T08:47:30.248Z,24.50
2023-06-28T08:49:57.819Z,24.08
2023-06-28T08:52:27.249Z,24.63
2023-06-28T08:54:55.184Z,25.35
2023-06-28T08:57:23.466Z,25.96
2023-06-28T08:59:50.815Z,26.68
2023-06-28T09:02:19.760Z,26.65
2023-06-28T09:04:49.625Z,26.16
2023-06-28T09:07:20.443Z,25.55
2023-06-28T09:09:50.424Z,24.86
2023-06-28T09:12:18.340Z,24.36
2023-06-28T09:14:45.367Z,23.93
2023-06-28T09:17:12.632Z,23.57
2023-06-28T09:19:40.667Z,23.32
2023-06-28T09:22:10.180Z,23.75
2023-06-28T09:24:38.506Z,24.23
2023-06-28T09:27:07.898Z,24.59
2023-06-28T09:29:35.459Z,25.39
2023-06-28T09:32:02.943Z,25.90
2023-06-28T09:34:30.565Z,26.04
2023-06-28T09:36:58.669Z,26.08
2023-06-28T09:39:27.254Z,25.78
2023-06-28T09:41:55.414Z,25.33
2023-06-28T09:44:30.604Z,24.98
2023-06-28T09:47:04.014Z,24.65
2023-06-28T09:49:31.893Z,24.35
2023-06-28T09:52:05.017Z,24.33
2023-06-28T09:54:33.898Z,24.90
2023-06-28T09:57:02.468Z,25.16
2023-06-28T09:59:36.179Z,25.07
2023-06-28T10:02:09.884Z,24.76
2023-06-28T10:04:38.528Z,24.39
2023-06-28T10:07:08.671Z,23.94
2023-06-28T10:09:40.529Z,23.56
2023-06-28T10:12:11.786Z,23.22
2023-06-28T10:14:43.341Z,23.04
2023-06-28T10:17:11.109Z,22.91
2023-06-28T10:19:39.800Z,22.91
2023-06-28T10:22:08.614Z,23.06
2023-06-28T10:24:37.722Z,23.24
2023-06-28T10:27:06.557Z,23.30
2023-06-28T10:29:36.082Z,23.37
2023-06-28T10:32:04.269Z,23.42
2023-06-28T10:34:34.713Z,23.36
2023-06-28T10:37:01.891Z,23.59
2023-06-28T10:39:29.391Z,24.01
2023-06-28T10:42:00.345Z,24.10
2023-06-28T10:44:27.772Z,24.11
2023-06-28T10:47:11.665Z,24.11
2023-06-28T10:49:41.552Z,23.88
2023-06-28T10:52:16.193Z,23.64
2023-06-28T10:54:43.309Z,23.46
2023-06-28T10:57:15.837Z,23.47
2023-06-28T10:59:43.975Z,23.90
2023-06-28T11:02:11.128Z,24.22
2023-06-28T11:04:53.265Z,24.20
2023-06-28T11:07:25.330Z,24.00
2023-06-28T11:10:15.735Z,23.82
2023-06-28T11:12:43.449Z,23.93
2023-06-28T11:15:16.135Z,24.24
2023-06-28T11:17:43.519Z,24.31
2023-06-28T11:20:13.196Z,24.25
2023-06-28T11:22:54.819Z,24.12
2023-06-28T11:25:30.009Z,23.86
2023-06-28T11:28:00.234Z,23.52
2023-06-28T11:30:52.301Z,23.24
2023-06-28T11:33:20.618Z,23.00
2023-06-28T11:35:48.635Z,22.76
2023-06-28T11:38:17.062Z,22.61
2023-06-28T11:40:44.124Z,22.51
2023-06-28T11:43:11.555Z,22.50
2023-06-28T11:45:40.608Z,22.55
2023-06-28T11:48:11.076Z,22.64
2023-06-28T11:50:38.881Z,22.69
2023-06-28T11:53:06.025Z,22.72
2023-06-28T11:55:34.015Z,22.73
2023-06-28T11:58:01.177Z,22.73
2023-06-28T12:00:40.605Z,22.72
2023-06-28T12:03:08.032Z,22.67
2023-06-28T12:05:35.781Z,22.54
2023-06-28T12:08:03.109Z,22.38
2023-06-28T12:10:37.539Z,22.24
2023-06-28T12:13:05.003Z,22.09
2023-06-28T12:15:32.069Z,21.87
2023-06-28T12:17:59.243Z,21.62
2023-06-28T12:20:26.627Z,21.39
2023-06-28T12:22:56.994Z,21.26
2023-06-28T12:25:31.547Z,21.10
2023-06-28T12:28:05.553Z,20.83
2023-06-28T12:30:32.975Z,20.56
2023-06-28T12:33:00.677Z,20.35
2023-06-28T12:35:28.469Z,20.17
2023-06-28T12:37:59.951Z,20.07
2023-06-28T12:40:31.898Z,20.00
2023-06-28T12:43:16.405Z,19.96
2023-06-28T12:45:51.164Z,19.88
2023-06-28T12:48:18.801Z,19.89
2023-06-28T12:50:46.453Z,19.94
2023-06-28T12:53:13.709Z,19.99
2023-06-28T12:55:42.305Z,20.07
2023-06-28T12:58:10.198Z,20.12
2023-06-28T13:00:37.908Z,20.12
2023-06-28T13:03:05.333Z,20.11
2023-06-28T13:05:32.955Z,20.07
2023-06-28T13:08:02.913Z,20.08
2023-06-28T13:10:30.133Z,20.13
2023-06-28T13:12:57.139Z,20.23
2023-06-28T13:15:24.362Z,20.36
2023-06-28T13:17:51.693Z,20.52
2023-06-28T13:20:18.926Z,20.66
2023-06-28T13:22:46.453Z,20.81
2023-06-28T13:25:14.610Z,20.96
2023-06-28T13:27:41.603Z,21.13
2023-06-28T13:30:10.774Z,21.33
2023-06-28T13:32:37.915Z,21.50
2023-06-28T13:35:07.854Z,21.64
2023-06-28T13:37:35.136Z,21.71
2023-06-28T13:40:03.759Z,21.71
2023-06-28T13:42:30.921Z,21.73
2023-06-28T13:44:58.034Z,21.78
2023-06-28T13:47:25.974Z,21.75
2023-06-28T13:49:53.452Z,21.76
2023-06-28T13:52:21.151Z,21.87
2023-06-28T13:54:48.405Z,21.95
2023-06-28T13:57:15.713Z,21.99
2023-06-28T13:59:42.997Z,22.00
2023-06-28T14:02:11.831Z,21.97
2023-06-28T14:04:39.265Z,21.90
2023-06-28T14:07:07.911Z,21.82
2023-06-28T14:09:35.361Z,21.70
2023-06-28T14:12:02.705Z,21.54
2023-06-28T14:14:29.790Z,21.44
2023-06-28T14:17:00.583Z,21.28
2023-06-28T14:19:27.923Z,21.10
2023-06-28T14:21:55.511Z,20.96
2023-06-28T14:24:22.649Z,20.83
2023-06-28T14:26:53.620Z,20.72
2023-06-28T14:29:21.157Z,20.63
2023-06-28T14:31:49.948Z,20.63
2023-06-28T14:34:17.429Z,20.70
2023-06-28T14:36:44.490Z,20.72
2023-06-28T14:39:11.744Z,20.73
2023-06-28T14:41:39.260Z,20.71
2023-06-28T14:44:07.338Z,20.68
2023-06-28T14:46:34.758Z,20.63
2023-06-28T14:49:02.892Z,20.68
2023-06-28T14:51:30.083Z,20.68
2023-06-28T14:54:00.194Z,20.64
2023-06-28T14:56:28.406Z,20.59
2023-06-28T14:58:55.554Z,20.58
2023-06-28T15:01:23.131Z,20.51
2023-06-28T15:03:50.326Z,20.46
2023-06-28T15:06:17.712Z,20.45
2023-06-28T15:08:45.232Z,20.42
2023-06-28T15:11:12.795Z,20.33
2023-06-28T15:13:42.251Z,20.24
2023-06-28T15:16:10.022Z,20.16
2023-06-28T15:18:37.359Z,20.07
2023-06-28T15:21:04.604Z,19.97
2023-06-28T15:23:32.585Z,19.92
2023-06-28T15:26:05.146Z,19.82
2023-06-28T15:28:32.528Z,19.76
2023-06-28T15:31:02.633Z,19.63
2023-06-28T15:33:32.798Z,19.60
2023-06-28T15:36:00.113Z,19.56
2023-06-28T15:38:27.636Z,19.50
2023-06-28T15:40:54.870Z,19.45
2023-06-28T15:43:22.820Z,19.43
2023-06-28T15:45:49.964Z,19.45
2023-06-28T15:48:17.547Z,19.45
2023-06-28T15:50:45.495Z,19.45
2023-06-28T15:53:12.832Z,19.40
2023-06-28T15:55:39.802Z,19.29
2023-06-28T15:58:06.798Z,19.22
2023-06-28T16:00:33.761Z,19.20
2023-06-28T16:03:01.019Z,19.16
2023-06-28T16:05:29.135Z,19.13
2023-06-28T16:07:56.543Z,19.11
2023-06-28T16:10:24.220Z,19.11
2023-06-28T16:12:51.676Z,19.12
2023-06-28T16:15:19.006Z,19.10
2023-06-28T16:17:46.253Z,19.04
2023-06-28T16:20:14.586Z,19.00
2023-06-28T16:22:41.591Z,18.95
2023-06-28T16:25:10.498Z,18.93
2023-06-28T16:27:37.967Z,18.89
2023-06-28T16:30:08.891Z,18.84
2023-06-28T16:32:36.020Z,18.79
2023-06-28T16:35:03.236Z,18.75
2023-06-28T16:37:30.278Z,18.70
2023-06-28T16:39:58.024Z,18.63
2023-06-28T16:42:25.458Z,18.58
2023-06-28T16:44:52.479Z,18.54
2023-06-28T16:47:19.649Z,18.51
2023-06-28T16:49:46.799Z,18.50
2023-06-28T16:52:13.903Z,18.46
2023-06-28T16:54:40.935Z,18.39
2023-06-28T16:57:09.902Z,18.34
2023-06-28T16:59:37.381Z,18.31
2023-06-28T17:02:04.645Z,18.31
2023-06-28T17:04:32.162Z,18.29
2023-06-28T17:06:59.267Z,18.25
2023-06-28T17:09:27.041Z,18.19
2023-06-28T17:11:54.093Z,18.14
2023-06-28T17:14:21.151Z,18.07
2023-06-28T17:16:48.183Z,18.01
2023-06-28T17:19:15.501Z,17.97
2023-06-28T17:21:42.443Z,17.92
2023-06-28T17:24:09.983Z,17.94
2023-06-28T17:26:37.454Z,17.96
2023-06-28T17:29:04.559Z,17.92
2023-06-28T17:31:31.582Z,17.88
2023-06-28T17:33:59.192Z,17.88
2023-06-28T17:36:28.847Z,17.87
2023-06-28T17:38:56.100Z,17.85
2023-06-28T17:41:23.303Z,17.81
2023-06-28T17:43:50.333Z,17.76
2023-06-28T17:46:17.447Z,17.71
2023-06-28T17:48:44.529Z,17.67
2023-06-28T17:51:11.567Z,17.63
2023-06-28T17:53:41.554Z,17.58
2023-06-28T17:56:08.933Z,17.53
2023-06-28T17:58:37.641Z,17.51
2023-06-28T18:01:04.682Z,17.50
2023-06-28T18:03:31.887Z,17.48
2023-06-28T18:05:59.357Z,17.47
2023-06-28T18:08:26.565Z,17.46
2023-06-28T18:10:54.233Z,17.43
2023-06-28T18:13:21.457Z,17.40
2023-06-28T18:15:48.851Z,17.38
2023-06-28T18:18:25.236Z,17.34
2023-06-28T18:20:52.314Z,17.28
2023-06-28T18:23:19.411Z,17.23
2023-06-28T18:25:46.813Z,17.19
2023-06-28T18:28:14.412Z,17.16
2023-06-28T18:30:41.687Z,17.11
2023-06-28T18:33:09.261Z,17.06
2023-06-28T18:35:39.397Z,16.98
2023-06-28T18:38:07.144Z,16.92
2023-06-28T18:40:34.713Z,16.88
2023-06-28T18:43:02.177Z,16.84
2023-06-28T18:45:29.111Z,16.79
2023-06-28T18:47:56.201Z,16.74
2023-06-28T18:50:23.598Z,16.69
2023-06-28T18:52:51.174Z,16.65
2023-06-28T18:55:21.057Z,16.61
2023-06-28T18:57:48.396Z,16.57
2023-06-28T19:00:17.954Z,16.51
2023-06-28T19:02:45.294Z,16.48
2023-06-28T19:05:15.731Z,16.46
2023-06-28T19:07:42.964Z,16.43
2023-06-28T19:10:11.194Z,16.40
2023-06-28T19:12:41.528Z,16.38
2023-06-28T19:15:11.950Z,16.33
2023-06-28T19:17:39.224Z,16.30
2023-06-28T19:20:07.736Z,16.25
2023-06-28T19:22:34.831Z,16.22
2023-06-28T19:25:02.687Z,16.18
2023-06-28T19:27:29.786Z,16.16
2023-06-28T19:29:56.864Z,16.13
2023-06-28T19:32:23.915Z,16.12
2023-06-28T19:34:50.952Z,16.08
2023-06-28T19:37:17.913Z,16.06
2023-06-28T19:39:45.992Z,16.03
2023-06-28T19:42:13.245Z,16.00
2023-06-28T19:44:40.681Z,15.97
2023-06-28T19:47:08.523Z,15.95
2023-06-28T19:49:36.363Z,15.90
2023-06-28T19:52:06.386Z,15.87
2023-06-28T19:54:33.954Z,15.83
2023-06-28T19:57:02.071Z,15.81
2023-06-28T19:59:29.546Z,15.79
2023-06-28T20:01:56.781Z,15.79
2023-06-28T20:04:24.014Z,15.79
2023-06-28T20:06:51.286Z,15.76
2023-06-28T20:09:18.472Z,15.73
2023-06-28T20:11:45.729Z,15.70
2023-06-28T20:14:13.732Z,15.68
2023-06-28T20:16:41.097Z,15.68
2023-06-28T20:19:12.972Z,15.66
2023-06-28T20:21:40.381Z,15.65
2023-06-28T20:24:08.324Z,15.63
2023-06-28T20:26:36.435Z,15.62
2023-06-28T20:29:03.861Z,15.61
2023-06-28T20:31:32.847Z,15.60
2023-06-28T20:34:00.214Z,15.57
2023-06-28T20:36:27.576Z,15.56
2023-06-28T20:38:54.805Z,15.54
2023-06-28T20:41:26.017Z,15.50
2023-06-28T20:43:53.917Z,15.47
2023-06-28T20:46:20.934Z,15.45
2023-06-28T20:48:48.284Z,15.45
2023-06-28T20:51:15.314Z,15.45
2023-06-28T20:53:43.879Z,15.45
2023-06-28T20:56:11.027Z,15.43
2023-06-28T20:58:38.360Z,15.43
2023-06-28T21:01:07.034Z,15.41
2023-06-28T21:03:34.276Z,15.39
2023-06-28T21:06:01.204Z,15.38
2023-06-28T21:08:28.486Z,15.36
2023-06-28T21:10:55.858Z,15.35
2023-06-28T21:13:23.081Z,15.34
2023-06-28T21:15:50.535Z,15.33
2023-06-28T21:18:17.752Z,15.32
2023-06-28T21:20:45.128Z,15.30
2023-06-28T21:23:12.309Z,15.28
2023-06-28T21:25:42.275Z,15.26
2023-06-28T21:28:10.469Z,15.24
2023-06-28T21:30:38.818Z,15.23
2023-06-28T21:33:06.165Z,15.22
2023-06-28T21:35:33.174Z,15.22
2023-06-28T21:38:00.506Z,15.22
2023-06-28T21:40:30.584Z,15.22
2023-06-28T21:42:57.726Z,15.21
2023-06-28T21:45:25.030Z,15.20
2023-06-28T21:47:52.454Z,15.19
2023-06-28T21:50:19.783Z,15.17
2023-06-28T21:52:46.979Z,15.16
2023-06-28T21:55:14.064Z,15.16
2023-06-28T21:58:01.936Z,15.15
2023-06-28T22:00:31.083Z,15.12
2023-06-28T22:03:13.494Z,15.09
2023-06-28T22:05:41.177Z,15.08
2023-06-28T22:08:14.576Z,15.08
2023-06-28T22:10:41.667Z,15.06
2023-06-28T22:13:12.381Z,15.04
2023-06-28T22:15:41.107Z,15.03
2023-06-28T22:18:11.212Z,15.02
2023-06-28T22:20:40.126Z,15.01
2023-06-28T22:23:08.060Z,15.01
2023-06-28T22:25:35.511Z,15.01
2023-06-28T22:28:03.328Z,14.99
2023-06-28T22:30:30.884Z,14.98
2023-06-28T22:32:58.543Z,14.98
2023-06-28T22:35:27.741Z,14.96
2023-06-28T22:37:56.254Z,14.95
2023-06-28T22:40:23.473Z,14.94
2023-06-28T22:42:51.165Z,14.92
2023-06-28T22:45:18.739Z,14.92
2023-06-28T22:47:48.333Z,14.92
2023-06-28T22:50:15.541Z,14.91
2023-06-28T22:52:46.063Z,14.92
2023-06-28T22:55:13.593Z,14.92
2023-06-28T22:57:41.262Z,14.92
2023-06-28T23:00:11.097Z,14.92
2023-06-28T23:02:39.503Z,14.91
2023-06-28T23:05:08.449Z,14.91
2023-06-28T23:07:35.771Z,14.90
2023-06-28T23:10:03.284Z,14.90
2023-06-28T23:12:32.893Z,14.90
2023-06-28T23:15:03.597Z,14.89
2023-06-28T23:17:31.797Z,14.87
2023-06-28T23:19:59.676Z,14.85
2023-06-28T23:22:29.114Z,14.85
2023-06-28T23:24:59.313Z,14.85
2023-06-28T23:27:27.174Z,14.84
2023-06-28T23:29:58.964Z,14.84
2023-06-28T23:32:27.794Z,14.84
2023-06-28T23:34:54.905Z,14.84
2023-06-28T23:37:22.642Z,14.82
2023-06-28T23:39:50.113Z,14.82
2023-06-28T23:42:17.876Z,14.82
2023-06-28T23:44:48.712Z,14.80
2023-06-28T23:47:16.969Z,14.79
2023-06-28T23:49:44.032Z,14.80
2023-06-28T23:52:11.900Z,14.79
2023-06-28T23:54:39.920Z,14.79
2023-06-28T23:57:08.050Z,14.79
2023-06-28T23:59:35.413Z,14.77
